sensor_id;sensor_type;location;lat;lon;timestamp;pressure;altitude;pressure_sealevel;temperature;humidity
74075;BME280;62428;51.412;5.432;2022-11-22T00:01:08;98986.59;;;5.91;98.42
74075;BME280;62428;51.412;5.432;2022-11-22T00:03:33;98982.38;;;5.90;98.14
74075;BME280;62428;51.412;5.432;2022-11-22T00:05:59;98990.84;;;5.92;98.36
74075;BME280;62428;51.412;5.432;2022-11-22T00:08:24;98991.13;;;5.90;98.29
74075;BME280;62428;51.412;5.432;2022-11-22T00:10:50;98999.63;;;5.92;98.29
74075;BME280;62428;51.412;5.432;2022-11-22T00:13:16;98989.72;;;5.93;98.64
74075;BME280;62428;51.412;5.432;2022-11-22T00:15:42;98990.53;;;5.93;98.53
74075;BME280;62428;51.412;5.432;2022-11-22T00:18:08;98999.31;;;5.94;98.34
74075;BME280;62428;51.412;5.432;2022-11-22T00:20:34;98997.72;;;5.93;98.29
74075;BME280;62428;51.412;5.432;2022-11-22T00:23:02;99006.34;;;5.90;98.18
74075;BME280;62428;51.412;5.432;2022-11-22T00:25:28;99004.75;;;5.89;97.83
74075;BME280;62428;51.412;5.432;2022-11-22T00:27:53;99001.91;;;5.85;97.75
74075;BME280;62428;51.412;5.432;2022-11-22T00:30:18;98999.06;;;5.82;97.93
74075;BME280;62428;51.412;5.432;2022-11-22T00:32:44;99006.88;;;5.78;97.59
74075;BME280;62428;51.412;5.432;2022-11-22T00:35:10;99008.28;;;5.75;97.76
74075;BME280;62428;51.412;5.432;2022-11-22T00:37:36;99007.81;;;5.73;97.57
74075;BME280;62428;51.412;5.432;2022-11-22T00:40:01;99005.44;;;5.72;98.11
74075;BME280;62428;51.412;5.432;2022-11-22T00:42:27;99001.50;;;5.69;97.62
74075;BME280;62428;51.412;5.432;2022-11-22T00:44:52;98998.34;;;5.67;97.88
74075;BME280;62428;51.412;5.432;2022-11-22T00:47:18;98996.78;;;5.66;97.98
74075;BME280;62428;51.412;5.432;2022-11-22T00:49:43;99000.53;;;5.65;97.63
74075;BME280;62428;51.412;5.432;2022-11-22T00:52:08;99003.03;;;5.62;97.85
74075;BME280;62428;51.412;5.432;2022-11-22T00:54:33;98997.22;;;5.59;97.92
74075;BME280;62428;51.412;5.432;2022-11-22T00:56:59;98990.31;;;5.58;97.59
74075;BME280;62428;51.412;5.432;2022-11-22T00:59:24;98998.63;;;5.57;97.80
74075;BME280;62428;51.412;5.432;2022-11-22T01:01:49;98997.03;;;5.56;97.85
74075;BME280;62428;51.412;5.432;2022-11-22T01:04:15;98999.22;;;5.54;97.33
74075;BME280;62428;51.412;5.432;2022-11-22T01:06:40;99003.28;;;5.51;97.58
74075;BME280;62428;51.412;5.432;2022-11-22T01:09:05;99003.56;;;5.50;97.72
74075;BME280;62428;51.412;5.432;2022-11-22T01:11:31;99011.09;;;5.48;97.39
74075;BME280;62428;51.412;5.432;2022-11-22T01:13:56;99001.81;;;5.45;97.16
74075;BME280;62428;51.412;5.432;2022-11-22T01:16:21;99009.31;;;5.43;97.54
74075;BME280;62428;51.412;5.432;2022-11-22T01:18:47;99001.63;;;5.42;97.28
74075;BME280;62428;51.412;5.432;2022-11-22T01:21:12;99008.03;;;5.41;97.16
74075;BME280;62428;51.412;5.432;2022-11-22T01:23:38;99018.22;;;5.38;97.69
74075;BME280;62428;51.412;5.432;2022-11-22T01:26:06;99016.94;;;5.36;97.27
74075;BME280;62428;51.412;5.432;2022-11-22T01:28:33;99007.66;;;5.33;96.87
74075;BME280;62428;51.412;5.432;2022-11-22T01:30:58;99015.19;;;5.31;97.13
74075;BME280;62428;51.412;5.432;2022-11-22T01:33:23;99020.31;;;5.28;97.31
74075;BME280;62428;51.412;5.432;2022-11-22T01:35:48;99022.50;;;5.26;96.96
74075;BME280;62428;51.412;5.432;2022-11-22T01:38:14;99020.13;;;5.24;97.08
74075;BME280;62428;51.412;5.432;2022-11-22T01:40:39;99025.75;;;5.23;97.26
74075;BME280;62428;51.412;5.432;2022-11-22T01:43:13;99032.63;;;5.24;97.54
74075;BME280;62428;51.412;5.432;2022-11-22T01:45:42;99037.97;;;5.24;97.07
74075;BME280;62428;51.412;5.432;2022-11-22T01:50:39;99040.13;;;5.22;97.21
74075;BME280;62428;51.412;5.432;2022-11-22T01:53:09;99046.56;;;5.20;97.38
74075;BME280;62428;51.412;5.432;2022-11-22T01:55:37;99044.69;;;5.21;97.55
74075;BME280;62428;51.412;5.432;2022-11-22T01:58:03;99040.44;;;5.20;97.54
74075;BME280;62428;51.412;5.432;2022-11-22T02:00:29;99037.00;;;5.19;97.35
74075;BME280;62428;51.412;5.432;2022-11-22T02:02:56;99038.09;;;5.18;97.26
74075;BME280;62428;51.412;5.432;2022-11-22T02:05:25;99039.16;;;5.17;97.58
74075;BME280;62428;51.412;5.432;2022-11-22T02:07:57;99041.81;;;5.17;97.22
74075;BME280;62428;51.412;5.432;2022-11-22T02:10:26;99043.72;;;5.17;97.71
74075;BME280;62428;51.412;5.432;2022-11-22T02:12:53;99039.16;;;5.17;97.39
74075;BME280;62428;51.412;5.432;2022-11-22T02:15:19;99044.50;;;5.17;97.53
74075;BME280;62428;51.412;5.432;2022-11-22T02:17:45;99042.91;;;5.16;97.31
74075;BME280;62428;51.412;5.432;2022-11-22T02:20:11;99053.06;;;5.14;97.54
74075;BME280;62428;51.412;5.432;2022-11-22T02:22:40;99046.19;;;5.13;97.38
74075;BME280;62428;51.412;5.432;2022-11-22T02:27:46;99048.03;;;5.13;97.42
74075;BME280;62428;51.412;5.432;2022-11-22T02:30:13;99049.13;;;5.12;97.15
74075;BME280;62428;51.412;5.432;2022-11-22T02:32:39;99051.03;;;5.11;97.28
74075;BME280;62428;51.412;5.432;2022-11-22T02:35:22;99051.31;;;5.10;97.34
74075;BME280;62428;51.412;5.432;2022-11-22T02:37:50;99063.84;;;5.09;97.43
74075;BME280;62428;51.412;5.432;2022-11-22T02:40:17;99059.28;;;5.10;96.81
74075;BME280;62428;51.412;5.432;2022-11-22T02:42:47;99063.03;;;5.09;97.17
74075;BME280;62428;51.412;5.432;2022-11-22T02:45:14;99052.69;;;5.07;97.32
74075;BME280;62428;51.412;5.432;2022-11-22T02:47:39;99064.44;;;5.06;96.89
74075;BME280;62428;51.412;5.432;2022-11-22T02:50:05;99070.81;;;5.05;96.75
74075;BME280;62428;51.412;5.432;2022-11-22T02:52:30;99073.78;;;5.04;96.51
74075;BME280;62428;51.412;5.432;2022-11-22T02:54:55;99068.25;;;5.00;96.86
74075;BME280;62428;51.412;5.432;2022-11-22T02:57:21;99072.03;;;4.99;96.32
74075;BME280;62428;51.412;5.432;2022-11-22T02:59:46;99065.91;;;4.98;96.76
74075;BME280;62428;51.412;5.432;2022-11-22T03:02:11;99067.00;;;4.97;96.35
74075;BME280;62428;51.412;5.432;2022-11-22T03:04:37;99069.94;;;4.96;96.28
74075;BME280;62428;51.412;5.432;2022-11-22T03:07:02;99063.06;;;4.95;96.05
74075;BME280;62428;51.412;5.432;2022-11-22T03:09:28;99071.34;;;4.93;96.15
74075;BME280;62428;51.412;5.432;2022-11-22T03:11:54;99064.44;;;4.92;96.23
74075;BME280;62428;51.412;5.432;2022-11-22T03:14:20;99079.91;;;4.90;95.65
74075;BME280;62428;51.412;5.432;2022-11-22T03:16:46;99085.03;;;4.87;95.41
74075;BME280;62428;51.412;5.432;2022-11-22T03:19:12;99083.47;;;4.86;96.19
74075;BME280;62428;51.412;5.432;2022-11-22T03:21:38;99089.88;;;4.85;95.97
74075;BME280;62428;51.412;5.432;2022-11-22T03:24:04;99089.38;;;4.82;95.97
74075;BME280;62428;51.412;5.432;2022-11-22T03:26:30;99082.75;;;4.80;95.95
74075;BME280;62428;51.412;5.432;2022-11-22T03:28:55;99087.91;;;4.76;95.74
74075;BME280;62428;51.412;5.432;2022-11-22T03:31:21;99095.06;;;4.76;95.54
74075;BME280;62428;51.412;5.432;2022-11-22T03:33:46;99096.47;;;4.73;95.51
74075;BME280;62428;51.412;5.432;2022-11-22T03:36:12;99089.84;;;4.71;95.71
74075;BME280;62428;51.412;5.432;2022-11-22T03:38:37;99095.50;;;4.69;95.49
74075;BME280;62428;51.412;5.432;2022-11-22T03:41:03;99099.50;;;4.67;95.17
74075;BME280;62428;51.412;5.432;2022-11-22T03:43:28;99095.28;;;4.66;95.29
74075;BME280;62428;51.412;5.432;2022-11-22T03:45:53;99096.66;;;4.63;94.98
74075;BME280;62428;51.412;5.432;2022-11-22T03:48:19;99093.50;;;4.61;95.16
74075;BME280;62428;51.412;5.432;2022-11-22T03:50:45;99094.06;;;4.58;95.17
74075;BME280;62428;51.412;5.432;2022-11-22T03:53:10;99098.13;;;4.55;94.75
74075;BME280;62428;51.412;5.432;2022-11-22T03:55:36;99096.03;;;4.52;95.28
74075;BME280;62428;51.412;5.432;2022-11-22T03:58:01;99099.31;;;4.49;94.92
74075;BME280;62428;51.412;5.432;2022-11-22T04:00:27;99085.47;;;4.47;95.35
74075;BME280;62428;51.412;5.432;2022-11-22T04:02:52;99092.19;;;4.45;95.01
74075;BME280;62428;51.412;5.432;2022-11-22T04:05:18;99102.63;;;4.41;94.98
74075;BME280;62428;51.412;5.432;2022-11-22T04:07:43;99106.38;;;4.40;95.19
74075;BME280;62428;51.412;5.432;2022-11-22T04:10:08;99103.19;;;4.38;94.82
74075;BME280;62428;51.412;5.432;2022-11-22T04:12:34;99099.56;;;4.34;94.98
74075;BME280;62428;51.412;5.432;2022-11-22T04:14:59;99106.75;;;4.33;95.22
74075;BME280;62428;51.412;5.432;2022-11-22T04:17:37;99110.47;;;4.32;94.89
74075;BME280;62428;51.412;5.432;2022-11-22T04:23:02;99120.91;;;4.29;94.74
74075;BME280;62428;51.412;5.432;2022-11-22T04:25:31;99117.75;;;4.27;94.69
74075;BME280;62428;51.412;5.432;2022-11-22T04:27:57;99129.47;;;4.26;94.83
74075;BME280;62428;51.412;5.432;2022-11-22T04:30:23;99130.53;;;4.24;94.92
74075;BME280;62428;51.412;5.432;2022-11-22T04:33:08;99120.47;;;4.21;94.66
74075;BME280;62428;51.412;5.432;2022-11-22T04:35:34;99113.88;;;4.19;94.59
74075;BME280;62428;51.412;5.432;2022-11-22T04:37:59;99112.63;;;4.16;94.52
74075;BME280;62428;51.412;5.432;2022-11-22T04:40:24;99120.59;;;4.16;95.07
74075;BME280;62428;51.412;5.432;2022-11-22T04:42:50;99130.13;;;4.17;94.83
74075;BME280;62428;51.412;5.432;2022-11-22T04:45:33;99124.03;;;4.17;94.41
74075;BME280;62428;51.412;5.432;2022-11-22T04:47:58;99134.16;;;4.15;94.71
74075;BME280;62428;51.412;5.432;2022-11-22T04:50:25;99128.34;;;4.13;94.67
74075;BME280;62428;51.412;5.432;2022-11-22T04:53:09;99137.41;;;4.12;94.48
74075;BME280;62428;51.412;5.432;2022-11-22T04:55:34;99137.19;;;4.08;94.28
74075;BME280;62428;51.412;5.432;2022-11-22T04:58:00;99139.84;;;4.08;94.55
74075;BME280;62428;51.412;5.432;2022-11-22T05:00:30;99137.75;;;4.05;94.56
74075;BME280;62428;51.412;5.432;2022-11-22T05:02:56;99136.19;;;4.04;94.37
74075;BME280;62428;51.412;5.432;2022-11-22T05:05:23;99133.03;;;4.02;94.49
74075;BME280;62428;51.412;5.432;2022-11-22T05:07:48;99139.69;;;3.99;93.94
74075;BME280;62428;51.412;5.432;2022-11-22T05:10:14;99139.19;;;3.97;94.18
74075;BME280;62428;51.412;5.432;2022-11-22T05:12:40;99145.00;;;3.99;94.37
74075;BME280;62428;51.412;5.432;2022-11-22T05:15:06;99143.72;;;3.97;94.06
74075;BME280;62428;51.412;5.432;2022-11-22T05:17:32;99138.69;;;3.95;94.23
74075;BME280;62428;51.412;5.432;2022-11-22T05:19:57;99133.66;;;3.94;94.04
74075;BME280;62428;51.412;5.432;2022-11-22T05:22:26;99136.59;;;3.92;94.28
74075;BME280;62428;51.412;5.432;2022-11-22T05:25:10;99141.94;;;3.92;94.16
74075;BME280;62428;51.412;5.432;2022-11-22T05:27:35;99137.72;;;3.91;93.96
74075;BME280;62428;51.412;5.432;2022-11-22T05:30:00;99128.13;;;3.90;93.77
74075;BME280;62428;51.412;5.432;2022-11-22T05:32:29;99118.59;;;3.89;93.93
74075;BME280;62428;51.412;5.432;2022-11-22T05:34:54;99122.34;;;3.88;94.26
74075;BME280;62428;51.412;5.432;2022-11-22T05:37:19;99130.31;;;3.88;93.71
74075;BME280;62428;51.412;5.432;2022-11-22T05:39:45;99123.44;;;3.87;93.99
74075;BME280;62428;51.412;5.432;2022-11-22T05:42:11;99127.16;;;3.86;94.13
74075;BME280;62428;51.412;5.432;2022-11-22T05:44:36;99123.72;;;3.85;94.18
74075;BME280;62428;51.412;5.432;2022-11-22T05:47:01;99118.41;;;3.85;94.04
74075;BME280;62428;51.412;5.432;2022-11-22T05:49:27;99121.06;;;3.85;93.77
74075;BME280;62428;51.412;5.432;2022-11-22T05:51:52;99123.72;;;3.85;94.21
74075;BME280;62428;51.412;5.432;2022-11-22T05:54:17;99128.81;;;3.82;93.94
74075;BME280;62428;51.412;5.432;2022-11-22T05:56:43;99122.69;;;3.81;93.75
74075;BME280;62428;51.412;5.432;2022-11-22T05:59:08;99121.13;;;3.80;94.08
74075;BME280;62428;51.412;5.432;2022-11-22T06:01:33;99122.19;;;3.79;94.04
74075;BME280;62428;51.412;5.432;2022-11-22T06:03:59;99123.28;;;3.78;93.95
74075;BME280;62428;51.412;5.432;2022-11-22T06:06:24;99113.22;;;3.75;93.53
74075;BME280;62428;51.412;5.432;2022-11-22T06:08:49;99120.13;;;3.76;93.76
74075;BME280;62428;51.412;5.432;2022-11-22T06:11:20;99113.22;;;3.75;93.56
74075;BME280;62428;51.412;5.432;2022-11-22T06:13:48;99121.19;;;3.75;93.71
74075;BME280;62428;51.412;5.432;2022-11-22T06:16:14;99118.31;;;3.72;93.94
74075;BME280;62428;51.412;5.432;2022-11-22T06:18:41;99119.69;;;3.69;93.72
74075;BME280;62428;51.412;5.432;2022-11-22T06:21:10;99118.88;;;3.69;93.66
74075;BME280;62428;51.412;5.432;2022-11-22T06:23:36;99126.06;;;3.68;93.59
74075;BME280;62428;51.412;5.432;2022-11-22T06:26:10;99128.72;;;3.68;93.98
74075;BME280;62428;51.412;5.432;2022-11-22T06:28:36;99122.13;;;3.65;93.55
74075;BME280;62428;51.412;5.432;2022-11-22T06:31:04;99136.19;;;3.66;93.71
74075;BME280;62428;51.412;5.432;2022-11-22T06:33:30;99133.53;;;3.66;94.04
74075;BME280;62428;51.412;5.432;2022-11-22T06:36:06;99136.47;;;3.64;93.56
74075;BME280;62428;51.412;5.432;2022-11-22T06:38:32;99127.72;;;3.64;93.83
74075;BME280;62428;51.412;5.432;2022-11-22T06:41:06;99136.47;;;3.64;93.45
74075;BME280;62428;51.412;5.432;2022-11-22T06:43:33;99140.50;;;3.62;93.50
74075;BME280;62428;51.412;5.432;2022-11-22T06:45:59;99146.59;;;3.62;93.60
74075;BME280;62428;51.412;5.432;2022-11-22T06:48:28;99140.78;;;3.60;93.18
74075;BME280;62428;51.412;5.432;2022-11-22T06:51:01;99146.88;;;3.61;93.46
74075;BME280;62428;51.412;5.432;2022-11-22T06:53:30;99151.69;;;3.59;93.29
74075;BME280;62428;51.412;5.432;2022-11-22T06:56:17;99155.13;;;3.59;93.23
74075;BME280;62428;51.412;5.432;2022-11-22T06:58:43;99167.91;;;3.57;93.66
74075;BME280;62428;51.412;5.432;2022-11-22T07:01:12;99170.28;;;3.59;93.62
74075;BME280;62428;51.412;5.432;2022-11-22T07:03:39;99162.88;;;3.56;93.54
74075;BME280;62428;51.412;5.432;2022-11-22T07:06:06;99171.66;;;3.56;93.65
74075;BME280;62428;51.412;5.432;2022-11-22T07:08:32;99177.47;;;3.58;94.12
74075;BME280;62428;51.412;5.432;2022-11-22T07:11:20;99181.41;;;3.61;94.28
74075;BME280;62428;51.412;5.432;2022-11-22T07:13:48;99178.47;;;3.62;94.62
74075;BME280;62428;51.412;5.432;2022-11-22T07:16:16;99177.09;;;3.65;94.34
74075;BME280;62428;51.412;5.432;2022-11-22T07:18:42;99182.94;;;3.67;94.75
74075;BME280;62428;51.412;5.432;2022-11-22T07:21:10;99176.25;;;3.70;94.63
74075;BME280;62428;51.412;5.432;2022-11-22T07:23:36;99179.41;;;3.72;94.02
74075;BME280;62428;51.412;5.432;2022-11-22T07:26:02;99171.94;;;3.74;94.35
74075;BME280;62428;51.412;5.432;2022-11-22T07:28:27;99180.41;;;3.76;94.03
74075;BME280;62428;51.412;5.432;2022-11-22T07:30:57;99171.88;;;3.79;93.97
74075;BME280;62428;51.412;5.432;2022-11-22T07:33:22;99175.03;;;3.81;93.80
74075;BME280;62428;51.412;5.432;2022-11-22T07:35:47;99176.34;;;3.83;94.25
74075;BME280;62428;51.412;5.432;2022-11-22T07:38:13;99180.28;;;3.86;94.50
74075;BME280;62428;51.412;5.432;2022-11-22T07:40:38;99185.81;;;3.90;94.43
74075;BME280;62428;51.412;5.432;2022-11-22T07:43:03;99181.50;;;3.94;93.97
74075;BME280;62428;51.412;5.432;2022-11-22T07:45:29;99188.91;;;3.97;94.37
74075;BME280;62428;51.412;5.432;2022-11-22T07:47:54;99178.78;;;3.99;94.82
74075;BME280;62428;51.412;5.432;2022-11-22T07:50:19;99189.63;;;4.02;94.59
74075;BME280;62428;51.412;5.432;2022-11-22T07:52:45;99182.44;;;4.03;93.95
74075;BME280;62428;51.412;5.432;2022-11-22T07:55:10;99182.94;;;4.05;93.38
74075;BME280;62428;51.412;5.432;2022-11-22T07:57:36;99186.13;;;4.07;93.62
74075;BME280;62428;51.412;5.432;2022-11-22T08:00:01;99194.31;;;4.11;94.21
74075;BME280;62428;51.412;5.432;2022-11-22T08:02:27;99194.00;;;4.12;94.00
74075;BME280;62428;51.412;5.432;2022-11-22T08:04:52;99197.16;;;4.14;93.54
74075;BME280;62428;51.412;5.432;2022-11-22T08:07:18;99196.88;;;4.16;93.47
74075;BME280;62428;51.412;5.432;2022-11-22T08:09:43;99190.97;;;4.19;93.23
74075;BME280;62428;51.412;5.432;2022-11-22T08:12:09;99200.22;;;4.21;92.77
74075;BME280;62428;51.412;5.432;2022-11-22T08:14:34;99191.97;;;4.23;93.73
74075;BME280;62428;51.412;5.432;2022-11-22T08:17:00;99199.38;;;4.26;93.16
74075;BME280;62428;51.412;5.432;2022-11-22T08:19:26;99201.75;;;4.28;93.41
74075;BME280;62428;51.412;5.432;2022-11-22T08:21:51;99197.72;;;4.30;92.54
74075;BME280;62428;51.412;5.432;2022-11-22T08:24:17;99195.56;;;4.32;93.44
74075;BME280;62428;51.412;5.432;2022-11-22T08:26:42;99192.31;;;4.35;93.16
74075;BME280;62428;51.412;5.432;2022-11-22T08:29:10;99203.47;;;4.37;92.38
74075;BME280;62428;51.412;5.432;2022-11-22T08:31:35;99205.84;;;4.39;92.93
74075;BME280;62428;51.412;5.432;2022-11-22T08:34:01;99207.13;;;4.41;92.72
74075;BME280;62428;51.412;5.432;2022-11-22T08:36:27;99208.41;;;4.44;92.71
74075;BME280;62428;51.412;5.432;2022-11-22T08:38:52;99207.03;;;4.47;92.53
74075;BME280;62428;51.412;5.432;2022-11-22T08:41:18;99214.16;;;4.51;92.78
74075;BME280;62428;51.412;5.432;2022-11-22T08:43:44;99214.38;;;4.55;92.83
74075;BME280;62428;51.412;5.432;2022-11-22T08:46:09;99213.00;;;4.57;92.55
74075;BME280;62428;51.412;5.432;2022-11-22T08:48:36;99219.63;;;4.60;92.25
74075;BME280;62428;51.412;5.432;2022-11-22T08:51:07;99209.97;;;4.64;92.63
74075;BME280;62428;51.412;5.432;2022-11-22T08:53:35;99210.19;;;4.68;92.38
74075;BME280;62428;51.412;5.432;2022-11-22T08:56:01;99205.34;;;4.70;92.02
74075;BME280;62428;51.412;5.432;2022-11-22T08:58:33;99211.16;;;4.72;91.46
74075;BME280;62428;51.412;5.432;2022-11-22T09:01:06;99207.94;;;4.75;91.37
74075;BME280;62428;51.412;5.432;2022-11-22T09:03:33;99204.16;;;4.76;91.88
74075;BME280;62428;51.412;5.432;2022-11-22T09:06:06;99207.31;;;4.78;92.29
74075;BME280;62428;51.412;5.432;2022-11-22T09:08:32;99207.03;;;4.79;92.84
74075;BME280;62428;51.412;5.432;2022-11-22T09:11:00;99211.00;;;4.82;92.88
74075;BME280;62428;51.412;5.432;2022-11-22T09:13:26;99208.84;;;4.84;92.01
74075;BME280;62428;51.412;5.432;2022-11-22T09:15:52;99219.69;;;4.88;92.49
74075;BME280;62428;51.412;5.432;2022-11-22T09:18:17;99220.66;;;4.92;92.48
74075;BME280;62428;51.412;5.432;2022-11-22T09:20:42;99220.59;;;4.97;91.59
74075;BME280;62428;51.412;5.432;2022-11-22T09:23:08;99217.31;;;5.00;91.71
74075;BME280;62428;51.412;5.432;2022-11-22T09:25:33;99222.06;;;5.03;92.02
74075;BME280;62428;51.412;5.432;2022-11-22T09:27:59;99224.16;;;5.06;91.49
74075;BME280;62428;51.412;5.432;2022-11-22T09:30:26;99227.00;;;5.10;91.90
74075;BME280;62428;51.412;5.432;2022-11-22T09:32:52;99223.75;;;5.13;91.92
74075;BME280;62428;51.412;5.432;2022-11-22T09:35:17;99217.34;;;5.14;91.15
74075;BME280;62428;51.412;5.432;2022-11-22T09:37:44;99224.75;;;5.17;90.79
74075;BME280;62428;51.412;5.432;2022-11-22T09:40:10;99221.50;;;5.20;91.52
74075;BME280;62428;51.412;5.432;2022-11-22T09:42:49;99224.34;;;5.24;91.78
74075;BME280;62428;51.412;5.432;2022-11-22T09:45:41;99220.31;;;5.26;91.57
74075;BME280;62428;51.412;5.432;2022-11-22T09:51:12;99219.53;;;5.26;90.78
74075;BME280;62428;51.412;5.432;2022-11-22T09:53:46;99220.63;;;5.25;90.26
74075;BME280;62428;51.412;5.432;2022-11-22T09:56:15;99217.19;;;5.24;90.57
74075;BME280;62428;51.412;5.432;2022-11-22T09:58:46;99219.84;;;5.24;90.23
74075;BME280;62428;51.412;5.432;2022-11-22T10:03:56;99228.13;;;5.23;90.18
74075;BME280;62428;51.412;5.432;2022-11-22T10:06:34;99230.78;;;5.23;90.10
74075;BME280;62428;51.412;5.432;2022-11-22T10:11:49;99225.75;;;5.21;90.98
74075;BME280;62428;51.412;5.432;2022-11-22T10:17:00;99223.56;;;5.23;91.75
74075;BME280;62428;51.412;5.432;2022-11-22T10:19:44;99220.63;;;5.25;91.04
74075;BME280;62428;51.412;5.432;2022-11-22T10:22:13;99216.88;;;5.26;91.51
74075;BME280;62428;51.412;5.432;2022-11-22T10:24:39;99216.56;;;5.27;90.95
74075;BME280;62428;51.412;5.432;2022-11-22T10:27:12;99214.38;;;5.29;91.76
74075;BME280;62428;51.412;5.432;2022-11-22T10:34:46;99218.94;;;5.43;90.52
74075;BME280;62428;51.412;5.432;2022-11-22T10:40:22;99192.41;;;5.51;90.53
74075;BME280;62428;51.412;5.432;2022-11-22T10:45:36;99190.31;;;5.62;89.19
74075;BME280;62428;51.412;5.432;2022-11-22T10:48:15;99195.03;;;5.65;90.01
74075;BME280;62428;51.412;5.432;2022-11-22T10:50:55;99199.78;;;5.68;89.13
74075;BME280;62428;51.412;5.432;2022-11-22T10:53:33;99193.06;;;5.71;88.65
74075;BME280;62428;51.412;5.432;2022-11-22T10:56:25;99189.31;;;5.72;88.96
74075;BME280;62428;51.412;5.432;2022-11-22T11:02:33;99185.25;;;5.74;88.45
74075;BME280;62428;51.412;5.432;2022-11-22T11:04:34;99183.41;;;5.75;88.37
74075;BME280;62428;51.412;5.432;2022-11-22T11:07:02;99183.06;;;5.76;88.36
74075;BME280;62428;51.412;5.432;2022-11-22T11:09:37;99177.75;;;5.76;89.70
74075;BME280;62428;51.412;5.432;2022-11-22T11:12:35;99177.44;;;5.78;89.27
74075;BME280;62428;51.412;5.432;2022-11-22T11:15:12;99171.06;;;5.79;88.89
74075;BME280;62428;51.412;5.432;2022-11-22T11:17:41;99167.75;;;5.82;88.69
74075;BME280;62428;51.412;5.432;2022-11-22T11:20:25;99165.59;;;5.84;87.61
74075;BME280;62428;51.412;5.432;2022-11-22T11:22:51;99163.13;;;5.88;89.59
74075;BME280;62428;51.412;5.432;2022-11-22T11:25:34;99168.13;;;5.89;88.45
74075;BME280;62428;51.412;5.432;2022-11-22T11:28:07;99158.00;;;5.91;87.81
74075;BME280;62428;51.412;5.432;2022-11-22T11:30:46;99162.69;;;5.94;87.98
74075;BME280;62428;51.412;5.432;2022-11-22T11:33:30;99148.31;;;5.95;87.60
74075;BME280;62428;51.412;5.432;2022-11-22T11:36:07;99150.69;;;5.97;87.10
74075;BME280;62428;51.412;5.432;2022-11-22T11:41:27;99148.50;;;5.99;86.73
74075;BME280;62428;51.412;5.432;2022-11-22T11:43:55;99149.00;;;6.01;87.88
74075;BME280;62428;51.412;5.432;2022-11-22T11:46:26;99150.88;;;6.01;86.58
74075;BME280;62428;51.412;5.432;2022-11-22T11:48:53;99159.66;;;6.01;86.44
74075;BME280;62428;51.412;5.432;2022-11-22T11:51:36;99157.47;;;6.03;87.80
74075;BME280;62428;51.412;5.432;2022-11-22T11:54:10;99154.22;;;6.06;87.07
74075;BME280;62428;51.412;5.432;2022-11-22T12:02:18;99154.59;;;6.13;86.65
74075;BME280;62428;51.412;5.432;2022-11-22T12:04:54;99150.81;;;6.14;86.23
74075;BME280;62428;51.412;5.432;2022-11-22T12:07:37;99157.09;;;6.19;87.22
74075;BME280;62428;51.412;5.432;2022-11-22T12:10:33;99156.81;;;6.20;87.56
74075;BME280;62428;51.412;5.432;2022-11-22T12:13:16;99157.28;;;6.22;86.72
74075;BME280;62428;51.412;5.432;2022-11-22T12:16:09;99159.66;;;6.24;86.99
74075;BME280;62428;51.412;5.432;2022-11-22T12:21:34;99151.06;;;6.27;87.55
74075;BME280;62428;51.412;5.432;2022-11-22T12:24:16;99141.94;;;6.28;85.44
74075;BME280;62428;51.412;5.432;2022-11-22T12:26:44;99139.00;;;6.29;85.00
74075;BME280;62428;51.412;5.432;2022-11-22T12:29:11;99138.69;;;6.31;84.50
74075;BME280;62428;51.412;5.432;2022-11-22T12:32:20;99153.31;;;6.33;85.97
74075;BME280;62428;51.412;5.432;2022-11-22T12:35:22;99144.50;;;6.33;85.97
74075;BME280;62428;51.412;5.432;2022-11-22T12:40:23;99140.75;;;6.34;84.57
74075;BME280;62428;51.412;5.432;2022-11-22T12:43:04;99153.78;;;6.35;84.91
74075;BME280;62428;51.412;5.432;2022-11-22T12:45:34;99155.66;;;6.35;84.12
74075;BME280;62428;51.412;5.432;2022-11-22T12:48:05;99159.13;;;6.35;84.52
74075;BME280;62428;51.412;5.432;2022-11-22T12:50:43;99148.47;;;6.35;85.02
74075;BME280;62428;51.412;5.432;2022-11-22T12:53:26;99150.31;;;6.35;84.71
74075;BME280;62428;51.412;5.432;2022-11-22T12:56:16;99144.22;;;6.34;84.97
74075;BME280;62428;51.412;5.432;2022-11-22T12:59:01;99134.66;;;6.33;84.44
74075;BME280;62428;51.412;5.432;2022-11-22T13:09:16;99139.34;;;6.37;85.42
74075;BME280;62428;51.412;5.432;2022-11-22T13:11:44;99133.72;;;6.38;84.19
74075;BME280;62428;51.412;5.432;2022-11-22T13:14:16;99139.53;;;6.40;84.19
74075;BME280;62428;51.412;5.432;2022-11-22T13:16:42;99132.81;;;6.43;85.42
74075;BME280;62428;51.412;5.432;2022-11-22T13:19:12;99130.94;;;6.43;85.54
74075;BME280;62428;51.412;5.432;2022-11-22T13:29:26;99129.81;;;6.44;85.70
74075;BME280;62428;51.412;5.432;2022-11-22T13:32:04;99126.84;;;6.46;86.71
74075;BME280;62428;51.412;5.432;2022-11-22T13:34:32;99130.81;;;6.48;85.55
74075;BME280;62428;51.412;5.432;2022-11-22T13:37:13;99129.69;;;6.49;86.36
74075;BME280;62428;51.412;5.432;2022-11-22T13:39:45;99139.78;;;6.52;86.92
74075;BME280;62428;51.412;5.432;2022-11-22T13:42:24;99140.25;;;6.54;86.50
74075;BME280;62428;51.412;5.432;2022-11-22T13:45:18;99138.69;;;6.53;86.09
74075;BME280;62428;51.412;5.432;2022-11-22T13:47:41;99138.69;;;6.53;86.13
74075;BME280;62428;51.412;5.432;2022-11-22T13:53:27;99154.06;;;6.57;86.52
74075;BME280;62428;51.412;5.432;2022-11-22T13:55:54;99155.19;;;6.56;87.52
74075;BME280;62428;51.412;5.432;2022-11-22T14:00:54;99151.22;;;6.53;87.74
74075;BME280;62428;51.412;5.432;2022-11-22T14:03:36;99141.19;;;6.50;87.21
74075;BME280;62428;51.412;5.432;2022-11-22T14:06:18;99146.50;;;6.50;87.41
74075;BME280;62428;51.412;5.432;2022-11-22T14:08:45;99140.06;;;6.51;87.08
74075;BME280;62428;51.412;5.432;2022-11-22T14:25:18;99135.50;;;6.51;87.21
74075;BME280;62428;51.412;5.432;2022-11-22T14:27:55;99138.19;;;6.51;86.07
74075;BME280;62428;51.412;5.432;2022-11-22T14:30:47;99135.38;;;6.57;86.17
74075;BME280;62428;51.412;5.432;2022-11-22T14:33:25;99132.41;;;6.58;87.06
74075;BME280;62428;51.412;5.432;2022-11-22T14:38:37;99131.34;;;6.59;86.69
74075;BME280;62428;51.412;5.432;2022-11-22T14:44:03;99134.78;;;6.60;87.44
74075;BME280;62428;51.412;5.432;2022-11-22T14:47:02;99133.38;;;6.62;87.67
74075;BME280;62428;51.412;5.432;2022-11-22T14:49:47;99136.34;;;6.61;88.04